createdAt,value
2022-12-22T00:01:54.293Z,3.30
2022-12-22T00:04:40.003Z,3.13
2022-12-22T00:07:25.633Z,3.27
2022-12-22T00:10:10.940Z,3.27
2022-12-22T00:12:57.664Z,3.10
2022-12-22T00:15:43.450Z,3.40
2022-12-22T00:18:33.252Z,3.57
2022-12-22T00:21:18.450Z,3.03
2022-12-22T00:24:03.818Z,3.10
2022-12-22T00:26:52.623Z,2.90
2022-12-22T00:29:40.201Z,3.27
2022-12-22T00:32:31.259Z,2.40
2022-12-22T00:35:16.581Z,2.20
2022-12-22T00:38:01.829Z,2.03
2022-12-22T00:40:47.659Z,2.07
2022-12-22T00:43:33.441Z,2.07
2022-12-22T00:46:22.084Z,2.53
2022-12-22T00:49:08.219Z,2.10
2022-12-22T00:51:53.556Z,2.13
2022-12-22T00:54:40.905Z,2.00
2022-12-22T00:57:35.176Z,2.20
2022-12-22T01:00:20.831Z,3.57
2022-12-22T01:03:07.593Z,2.63
2022-12-22T01:05:53.195Z,2.37
2022-12-22T01:08:38.367Z,2.23
2022-12-22T01:11:24.177Z,2.90
2022-12-22T01:14:09.449Z,2.60
2022-12-22T01:16:54.757Z,3.10
2022-12-22T01:19:41.815Z,3.23
2022-12-22T01:22:29.498Z,3.40
2022-12-22T01:25:15.316Z,3.20
2022-12-22T01:28:00.527Z,3.47
2022-12-22T01:30:45.772Z,3.83
2022-12-22T01:33:32.210Z,3.70
2022-12-22T01:36:18.557Z,3.53
2022-12-22T01:39:03.829Z,3.30
2022-12-22T01:41:49.094Z,3.10
2022-12-22T01:44:36.194Z,3.27
2022-12-22T01:47:50.341Z,3.60
2022-12-22T01:50:44.291Z,3.33
2022-12-22T01:53:36.844Z,3.70
2022-12-22T01:56:22.919Z,3.13
2022-12-22T01:59:11.650Z,3.07
2022-12-22T02:01:59.508Z,3.47
2022-12-22T02:04:49.487Z,3.10
2022-12-22T02:07:50.877Z,3.13
2022-12-22T02:10:58.112Z,3.40
2022-12-22T02:13:51.824Z,3.37
2022-12-22T02:16:45.289Z,3.53
2022-12-22T02:19:42.668Z,3.30
2022-12-22T02:22:40.115Z,3.53
2022-12-22T02:25:33.953Z,3.47
2022-12-22T02:28:21.700Z,3.43
2022-12-22T02:31:10.018Z,3.20
2022-12-22T02:33:55.276Z,3.20
2022-12-22T02:36:49.751Z,3.20
2022-12-22T02:39:43.202Z,2.93
2022-12-22T02:42:40.679Z,2.80
2022-12-22T02:45:35.596Z,2.20
2022-12-22T02:48:24.992Z,2.60
2022-12-22T02:51:14.091Z,2.50
2022-12-22T02:53:59.779Z,2.30
2022-12-22T02:56:44.908Z,1.33
2022-12-22T02:59:30.460Z,1.70
2022-12-22T03:02:17.034Z,2.10
2022-12-22T03:05:02.383Z,1.80
2022-12-22T03:07:47.944Z,2.00
2022-12-22T03:10:33.687Z,1.40
2022-12-22T03:13:19.515Z,1.30
2022-12-22T03:16:04.861Z,1.47
2022-12-22T03:18:51.515Z,1.10
2022-12-22T03:21:36.797Z,1.50
2022-12-22T03:24:22.551Z,1.07
2022-12-22T03:26:50.516Z,1.50
2022-12-22T03:29:18.508Z,1.23
2022-12-22T03:31:46.592Z,1.07
2022-12-22T03:34:16.107Z,1.23
2022-12-22T03:36:44.006Z,1.20
2022-12-22T03:39:11.853Z,1.30
2022-12-22T03:41:57.409Z,1.80
2022-12-22T03:44:42.083Z,1.23
2022-12-22T03:47:10.159Z,1.33
2022-12-22T03:49:39.426Z,1.20
2022-12-22T03:52:07.279Z,1.13
2022-12-22T03:54:35.087Z,1.13
2022-12-22T03:57:02.948Z,1.00
2022-12-22T03:59:30.774Z,0.83
2022-12-22T04:01:58.739Z,0.87
2022-12-22T04:04:27.633Z,0.90
2022-12-22T04:06:57.085Z,0.70
2022-12-22T04:09:27.126Z,0.70
2022-12-22T04:12:13.103Z,1.00
2022-12-22T04:14:40.920Z,0.80
2022-12-22T04:17:09.755Z,0.90
2022-12-22T04:19:37.743Z,0.97
2022-12-22T04:22:07.240Z,0.60
2022-12-22T04:24:35.178Z,0.70
2022-12-22T04:27:03.187Z,0.77
2022-12-22T04:29:31.031Z,0.70
2022-12-22T04:31:59.055Z,0.90
2022-12-22T04:34:26.908Z,0.77
2022-12-22T04:36:54.784Z,0.60
2022-12-22T04:39:24.002Z,0.77
2022-12-22T04:41:51.827Z,0.50
2022-12-22T04:44:19.645Z,0.60
2022-12-22T04:46:47.717Z,1.03
2022-12-22T04:49:15.589Z,0.53
2022-12-22T04:51:43.471Z,1.10
2022-12-22T04:54:12.086Z,1.23
2022-12-22T04:56:41.272Z,0.73
2022-12-22T04:59:09.658Z,0.77
2022-12-22T05:01:37.745Z,0.70
2022-12-22T05:04:06.013Z,3.40
2022-12-22T05:06:34.193Z,0.80
2022-12-22T05:09:02.148Z,0.80
2022-12-22T05:11:30.098Z,0.60
2022-12-22T05:14:05.230Z,0.70
2022-12-22T05:16:34.993Z,1.10
2022-12-22T05:19:03.403Z,0.60
2022-12-22T05:21:31.378Z,1.00
2022-12-22T05:23:59.881Z,0.97
2022-12-22T05:26:27.725Z,1.37
2022-12-22T05:28:55.885Z,1.17
2022-12-22T05:31:26.661Z,1.30
2022-12-22T05:33:54.608Z,1.00
2022-12-22T05:36:22.506Z,0.97
2022-12-22T05:38:50.342Z,0.97
2022-12-22T05:41:18.158Z,0.97
2022-12-22T05:43:46.040Z,1.23
2022-12-22T05:46:14.037Z,1.20
2022-12-22T05:48:43.339Z,1.20
2022-12-22T05:51:12.091Z,1.23
2022-12-22T05:53:40.390Z,1.23
2022-12-22T05:56:09.390Z,1.00
2022-12-22T05:58:39.512Z,1.30
2022-12-22T06:01:07.884Z,1.53
2022-12-22T06:03:35.879Z,1.53
2022-12-22T06:06:05.621Z,1.37
2022-12-22T06:08:33.477Z,1.60
2022-12-22T06:11:01.281Z,1.37
2022-12-22T06:13:29.210Z,1.40
2022-12-22T06:15:57.330Z,1.70
2022-12-22T06:18:25.199Z,1.20
2022-12-22T06:20:53.438Z,2.10
2022-12-22T06:23:23.338Z,2.03
2022-12-22T06:25:58.350Z,1.03
2022-12-22T06:28:26.779Z,1.70
2022-12-22T06:30:54.876Z,2.30
2022-12-22T06:33:22.955Z,1.30
2022-12-22T06:35:57.524Z,1.50
2022-12-22T06:38:28.608Z,2.20
2022-12-22T06:40:56.717Z,2.83
2022-12-22T06:43:23.615Z,1.60
2022-12-22T06:45:51.472Z,2.10
2022-12-22T06:48:20.318Z,2.93
2022-12-22T06:50:48.166Z,2.57
2022-12-22T06:53:16.060Z,2.53
2022-12-22T06:55:45.230Z,1.80
2022-12-22T06:58:13.168Z,1.87
2022-12-22T07:00:40.990Z,1.63
2022-12-22T07:03:08.980Z,1.50
2022-12-22T07:05:37.074Z,1.10
2022-12-22T07:08:08.755Z,1.90
2022-12-22T07:11:01.003Z,2.03
2022-12-22T07:13:32.684Z,2.03
2022-12-22T07:16:01.918Z,1.50
2022-12-22T07:18:31.428Z,1.30
2022-12-22T07:21:00.697Z,1.90
2022-12-22T07:23:29.213Z,1.83
2022-12-22T07:25:57.343Z,1.67
2022-12-22T07:28:25.641Z,1.97
2022-12-22T07:30:55.790Z,1.80
2022-12-22T07:33:24.204Z,2.33
2022-12-22T07:36:03.780Z,1.47
2022-12-22T07:38:33.700Z,2.07
2022-12-22T07:41:05.297Z,1.40
2022-12-22T07:43:32.605Z,1.40
2022-12-22T07:46:01.918Z,1.47
2022-12-22T07:48:47.594Z,2.10
2022-12-22T07:51:15.481Z,1.50
2022-12-22T07:53:43.330Z,1.53
2022-12-22T07:56:11.337Z,1.20
2022-12-22T07:58:39.159Z,1.40
2022-12-22T08:01:08.348Z,1.67
2022-12-22T08:03:36.310Z,1.30
2022-12-22T08:06:05.624Z,1.40
2022-12-22T08:08:34.568Z,1.47
2022-12-22T08:11:02.939Z,1.17
2022-12-22T08:13:30.858Z,1.77
2022-12-22T08:16:05.015Z,1.87
2022-12-22T08:18:34.973Z,1.60
2022-12-22T08:21:03.936Z,1.30
2022-12-22T08:23:32.481Z,1.50
2022-12-22T08:26:04.884Z,1.70
2022-12-22T08:28:35.645Z,1.63
2022-12-22T08:31:04.828Z,2.00
2022-12-22T08:33:34.287Z,1.50
2022-12-22T08:36:07.824Z,1.53
2022-12-22T08:38:37.691Z,1.70
2022-12-22T08:41:06.231Z,1.47
2022-12-22T08:43:34.631Z,4.50
2022-12-22T08:46:02.521Z,4.60
2022-12-22T08:48:30.462Z,5.83
2022-12-22T08:50:59.740Z,3.07
2022-12-22T08:54:03.189Z,1.77
2022-12-22T08:56:15.390Z,1.47
2022-12-22T08:58:43.334Z,1.40
2022-12-22T09:01:17.150Z,1.50
2022-12-22T09:03:49.306Z,1.20
2022-12-22T09:06:19.874Z,1.10
2022-12-22T09:08:55.334Z,1.20
2022-12-22T09:11:23.304Z,1.27
2022-12-22T09:13:53.002Z,1.60
2022-12-22T09:16:22.231Z,1.60
2022-12-22T09:18:50.439Z,1.60
2022-12-22T09:21:19.951Z,1.60
2022-12-22T09:23:47.811Z,2.00
2022-12-22T09:26:17.636Z,1.50
2022-12-22T09:28:50.085Z,1.57
2022-12-22T09:31:19.564Z,1.77
2022-12-22T09:33:47.550Z,1.50
2022-12-22T09:36:17.913Z,1.70
2022-12-22T09:38:47.427Z,1.30
2022-12-22T09:41:19.812Z,1.60
2022-12-22T09:43:48.426Z,1.17
2022-12-22T09:46:22.472Z,1.43
2022-12-22T09:48:51.084Z,1.43
2022-12-22T09:51:26.133Z,5.87
2022-12-22T09:54:00.003Z,3.93
2022-12-22T09:56:29.409Z,4.60
2022-12-22T09:58:58.189Z,1.60
2022-12-22T10:01:43.409Z,2.40
2022-12-22T10:04:21.672Z,2.47
2022-12-22T10:07:00.104Z,2.60
2022-12-22T10:09:48.708Z,6.50
2022-12-22T10:12:20.521Z,3.93
2022-12-22T10:14:50.453Z,1.43
2022-12-22T10:17:21.062Z,2.93
2022-12-22T10:19:51.341Z,2.53
2022-12-22T10:22:26.363Z,2.40
2022-12-22T10:24:55.719Z,2.13
2022-12-22T10:27:29.145Z,5.53
2022-12-22T10:30:18.849Z,2.10
2022-12-22T10:33:03.611Z,4.60
2022-12-22T10:35:47.303Z,1.87
2022-12-22T10:38:21.431Z,2.87
2022-12-22T10:41:00.101Z,3.77
2022-12-22T10:43:32.854Z,2.33
2022-12-22T10:46:02.210Z,2.63
2022-12-22T10:48:33.592Z,2.77
2022-12-22T10:51:02.854Z,2.00
2022-12-22T10:53:46.690Z,1.63
2022-12-22T10:56:28.121Z,1.77
2022-12-22T10:58:58.165Z,1.67
2022-12-22T11:01:29.569Z,1.70
2022-12-22T11:03:58.418Z,2.53
2022-12-22T11:06:26.410Z,1.90
2022-12-22T11:08:58.150Z,2.20
2022-12-22T11:11:47.472Z,3.20
2022-12-22T11:14:27.976Z,2.10
2022-12-22T11:17:04.181Z,2.83
2022-12-22T11:19:46.152Z,5.57
2022-12-22T11:22:25.556Z,4.20
2022-12-22T11:25:08.159Z,4.60
2022-12-22T11:27:47.914Z,8.63
2022-12-22T11:30:19.926Z,2.40
2022-12-22T11:33:17.640Z,4.20
2022-12-22T11:35:56.483Z,3.33
2022-12-22T11:38:37.370Z,4.73
2022-12-22T11:41:15.719Z,8.17
2022-12-22T11:43:58.841Z,1.47
2022-12-22T11:46:33.197Z,2.03
2022-12-22T11:49:17.046Z,2.43
2022-12-22T11:52:01.067Z,1.33
2022-12-22T11:54:50.055Z,1.80
2022-12-22T11:57:28.067Z,1.97
2022-12-22T12:00:04.877Z,0.80
2022-12-22T12:03:15.125Z,2.53
2022-12-22T12:06:05.103Z,1.60
2022-12-22T12:08:44.703Z,2.90
2022-12-22T12:11:21.409Z,1.50
2022-12-22T12:14:01.362Z,3.47
2022-12-22T12:16:40.350Z,2.30
2022-12-22T12:19:33.844Z,8.20
2022-12-22T12:22:05.674Z,4.10
2022-12-22T12:24:48.429Z,4.43
2022-12-22T12:27:30.598Z,2.73
2022-12-22T12:30:36.950Z,5.90
2022-12-22T12:33:00.021Z,1.60
2022-12-22T12:35:47.874Z,3.27
2022-12-22T12:38:39.843Z,3.50
2022-12-22T12:41:13.895Z,5.40
2022-12-22T12:43:42.764Z,4.47
2022-12-22T12:46:45.809Z,2.83
2022-12-22T12:49:52.302Z,1.87
2022-12-22T12:53:04.925Z,2.90
2022-12-22T12:55:51.388Z,3.60
2022-12-22T12:58:50.558Z,2.07
2022-12-22T13:01:55.999Z,1.50
2022-12-22T13:05:10.553Z,2.30
2022-12-22T13:08:07.074Z,0.80
2022-12-22T13:10:41.232Z,1.20
2022-12-22T13:13:12.495Z,0.47
2022-12-22T13:15:42.030Z,0.57
2022-12-22T13:18:47.450Z,0.43
2022-12-22T13:24:25.789Z,0.20
2022-12-22T13:26:57.006Z,0.50
2022-12-22T13:29:29.677Z,0.10
2022-12-22T13:32:02.047Z,0.77
2022-12-22T13:35:20.190Z,0.50
2022-12-22T13:37:41.583Z,0.50
2022-12-22T13:40:15.765Z,0.63
2022-12-22T13:42:48.730Z,0.30
2022-12-22T13:45:24.738Z,0.60
2022-12-22T13:47:53.269Z,0.43
2022-12-22T13:50:24.514Z,0.57
2022-12-22T13:52:53.501Z,0.60
2022-12-22T13:55:26.130Z,0.53
2022-12-22T13:57:58.904Z,0.47
2022-12-22T14:00:29.630Z,0.50
2022-12-22T14:02:57.704Z,0.33
2022-12-22T14:05:31.796Z,1.00
2022-12-22T14:08:04.556Z,0.80
2022-12-22T14:10:38.480Z,0.90
2022-12-22T14:13:15.375Z,1.17
2022-12-22T14:15:43.558Z,0.97
2022-12-22T14:18:17.290Z,0.97
2022-12-22T14:20:48.453Z,0.77
2022-12-22T14:23:21.687Z,0.80
2022-12-22T14:25:51.332Z,1.00
2022-12-22T14:28:24.211Z,1.03
2022-12-22T14:30:54.702Z,1.03
2022-12-22T14:33:31.757Z,1.23
2022-12-22T14:36:17.757Z,1.20
2022-12-22T14:38:47.564Z,1.80
2022-12-22T14:41:40.056Z,1.93
2022-12-22T14:44:15.283Z,2.23
2022-12-22T14:46:44.543Z,1.57
2022-12-22T14:49:16.711Z,1.37
2022-12-22T14:51:45.015Z,1.50
2022-12-22T14:54:21.354Z,1.30
2022-12-22T14:56:51.471Z,2.10
2022-12-22T14:59:26.764Z,1.70
2022-12-22T15:01:59.882Z,1.37
2022-12-22T15:04:28.533Z,1.40
2022-12-22T15:07:45.703Z,1.10
2022-12-22T15:10:15.008Z,1.50
2022-12-22T15:12:44.642Z,1.13
2022-12-22T15:15:23.724Z,1.17
2022-12-22T15:17:54.492Z,1.60
2022-12-22T15:20:24.548Z,1.70
2022-12-22T15:22:52.960Z,1.00
2022-12-22T15:25:22.777Z,1.57
2022-12-22T15:27:52.216Z,1.00
2022-12-22T15:30:28.660Z,1.40
2022-12-22T15:32:57.370Z,1.33
2022-12-22T15:35:29.453Z,3.37
2022-12-22T15:37:57.273Z,3.57
2022-12-22T15:40:26.945Z,1.60
2022-12-22T15:42:55.418Z,1.27
2022-12-22T15:45:24.759Z,1.77
2022-12-22T15:47:55.671Z,1.90
2022-12-22T15:50:35.157Z,1.63
2022-12-22T15:53:09.151Z,1.37
2022-12-22T15:55:41.940Z,1.90
2022-12-22T15:58:13.323Z,1.63
2022-12-22T16:00:42.636Z,1.57
2022-12-22T16:03:11.798Z,1.30
2022-12-22T16:05:41.386Z,1.90
2022-12-22T16:08:18.141Z,2.03
2022-12-22T16:10:47.621Z,2.47
2022-12-22T16:13:17.344Z,2.60
2022-12-22T16:15:46.576Z,2.13
2022-12-22T16:18:14.494Z,3.10
2022-12-22T16:20:44.079Z,3.03
2022-12-22T16:23:15.948Z,2.60
2022-12-22T16:25:45.823Z,1.90
2022-12-22T16:28:17.923Z,2.37
2022-12-22T16:30:47.864Z,2.00
2022-12-22T16:33:16.183Z,1.77
2022-12-22T16:35:44.788Z,1.87
2022-12-22T16:38:18.629Z,2.33
2022-12-22T16:40:48.908Z,1.93
2022-12-22T16:46:15.275Z,2.30
2022-12-22T16:48:46.089Z,2.23
2022-12-22T16:51:18.688Z,2.50
2022-12-22T16:53:46.718Z,3.10
2022-12-22T16:56:18.961Z,3.50
2022-12-22T16:58:47.407Z,3.73
2022-12-22T17:01:25.311Z,5.60
2022-12-22T17:03:53.793Z,6.17
2022-12-22T17:06:21.967Z,4.33
2022-12-22T17:08:50.309Z,4.03
2022-12-22T17:11:22.658Z,4.70
2022-12-22T17:13:53.784Z,5.20
2022-12-22T17:16:24.211Z,5.50
2022-12-22T17:18:52.090Z,4.80
2022-12-22T17:21:21.749Z,6.90
2022-12-22T17:23:52.153Z,3.90
2022-12-22T17:26:23.861Z,3.57
2022-12-22T17:28:53.281Z,5.00
2022-12-22T17:31:23.859Z,4.03
2022-12-22T17:33:51.856Z,3.10
2022-12-22T17:36:29.408Z,3.00
2022-12-22T17:38:57.582Z,2.73
2022-12-22T17:41:26.092Z,3.13
2022-12-22T17:43:53.965Z,2.63
2022-12-22T17:46:23.672Z,3.37
2022-12-22T17:48:51.749Z,2.77
2022-12-22T17:51:23.755Z,3.23
2022-12-22T17:53:52.549Z,2.53
2022-12-22T17:56:22.059Z,3.63
2022-12-22T17:58:50.275Z,3.97
2022-12-22T18:01:21.377Z,3.33
2022-12-22T18:03:50.779Z,2.97
2022-12-22T18:06:21.930Z,3.80
2022-12-22T18:08:50.749Z,3.57
2022-12-22T18:11:18.762Z,3.40
2022-12-22T18:13:46.948Z,4.20
2022-12-22T18:16:17.067Z,7.87
2022-12-22T18:18:45.846Z,27.10
2022-12-22T18:21:18.035Z,19.43
2022-12-22T18:23:49.939Z,58.43
2022-12-22T18:26:22.267Z,19.73
2022-12-22T18:28:50.936Z,18.37
2022-12-22T18:31:18.906Z,24.07
2022-12-22T18:33:46.966Z,13.83
2022-12-22T18:36:21.863Z,15.90
2022-12-22T18:38:51.025Z,17.97
2022-12-22T18:41:22.134Z,10.03
2022-12-22T18:43:50.562Z,9.43
2022-12-22T18:46:18.744Z,22.60
2022-12-22T18:48:47.521Z,23.03
2022-12-22T18:51:21.229Z,18.60
2022-12-22T18:53:50.299Z,10.40
2022-12-22T18:56:18.233Z,11.17
2022-12-22T18:58:47.093Z,11.03
2022-12-22T19:01:19.507Z,11.70
2022-12-22T19:03:48.017Z,6.10
2022-12-22T19:06:18.679Z,9.67
2022-12-22T19:08:48.901Z,5.00
2022-12-22T19:11:18.274Z,10.30
2022-12-22T19:13:48.530Z,4.73
2022-12-22T19:16:19.586Z,4.70
2022-12-22T19:18:47.481Z,7.30
2022-12-22T19:21:15.915Z,6.87
2022-12-22T19:23:44.581Z,7.40
2022-12-22T19:26:22.047Z,8.07
2022-12-22T19:28:51.855Z,5.83
2022-12-22T19:31:23.509Z,5.30
2022-12-22T19:33:52.496Z,5.07
2022-12-22T19:36:22.376Z,3.47
2022-12-22T19:38:51.243Z,3.83
2022-12-22T19:41:31.381Z,3.20
2022-12-22T19:43:59.519Z,3.37
2022-12-22T19:46:33.372Z,3.07
2022-12-22T19:49:01.504Z,2.77
2022-12-22T19:51:31.390Z,2.97
2022-12-22T19:53:59.232Z,2.60
2022-12-22T19:56:30.779Z,2.30
2022-12-22T19:59:00.840Z,2.13
2022-12-22T20:01:29.164Z,2.37
2022-12-22T20:03:57.096Z,2.47
2022-12-22T20:06:24.910Z,3.43
2022-12-22T20:08:52.819Z,2.03
2022-12-22T20:11:21.521Z,2.47
2022-12-22T20:13:50.945Z,2.50
2022-12-22T20:16:19.029Z,3.20
2022-12-22T20:18:47.253Z,2.90
2022-12-22T20:21:19.378Z,3.20
2022-12-22T20:23:48.212Z,6.50
2022-12-22T20:26:18.804Z,3.23
2022-12-22T20:28:46.744Z,5.37
2022-12-22T20:31:17.515Z,4.63
2022-12-22T20:33:45.622Z,3.73
2022-12-22T20:36:20.755Z,3.23
2022-12-22T20:38:49.420Z,4.23
2022-12-22T20:41:17.281Z,3.60
2022-12-22T20:43:45.174Z,7.03
2022-12-22T20:46:17.943Z,5.00
2022-12-22T20:48:48.844Z,7.07
2022-12-22T20:51:18.604Z,5.10
2022-12-22T20:53:48.010Z,5.20
2022-12-22T20:56:22.750Z,3.17
2022-12-22T20:58:51.253Z,6.10
2022-12-22T21:01:20.590Z,2.73
2022-12-22T21:03:48.750Z,3.10
2022-12-22T21:06:24.713Z,3.07
2022-12-22T21:08:53.760Z,2.43
2022-12-22T21:11:21.870Z,3.30
2022-12-22T21:13:49.947Z,1.70
2022-12-22T21:16:23.093Z,1.90
2022-12-22T21:18:51.916Z,1.80
2022-12-22T21:21:20.656Z,1.30
2022-12-22T21:23:49.067Z,2.20
2022-12-22T21:26:22.725Z,2.53
2022-12-22T21:28:52.183Z,2.33
2022-12-22T21:31:22.093Z,2.87
2022-12-22T21:33:50.432Z,2.40
2022-12-22T21:36:23.515Z,0.90
2022-12-22T21:38:54.883Z,1.80
2022-12-22T21:41:44.262Z,2.03
2022-12-22T21:44:13.489Z,1.10
2022-12-22T21:46:45.879Z,2.70
2022-12-22T21:49:19.826Z,1.60
2022-12-22T21:51:48.900Z,1.90
2022-12-22T21:54:17.857Z,1.60
2022-12-22T21:56:46.172Z,2.53
2022-12-22T21:59:14.978Z,2.50
2022-12-22T22:01:45.341Z,1.93
2022-12-22T22:04:14.264Z,1.90
2022-12-22T22:06:42.453Z,1.80
2022-12-22T22:09:13.273Z,1.23
2022-12-22T22:12:00.581Z,8.77
2022-12-22T22:14:28.843Z,14.43
2022-12-22T22:16:58.403Z,2.30
2022-12-22T22:19:26.645Z,1.50
2022-12-22T22:21:54.548Z,1.40
2022-12-22T22:24:22.421Z,1.23
2022-12-22T22:26:51.591Z,1.50
2022-12-22T22:29:19.743Z,1.03
2022-12-22T22:31:47.660Z,1.30
2022-12-22T22:34:17.065Z,1.43
2022-12-22T22:36:44.931Z,1.30
2022-12-22T22:39:12.872Z,1.30
2022-12-22T22:41:43.466Z,1.77
2022-12-22T22:44:11.771Z,1.33
2022-12-22T22:46:40.657Z,1.60
2022-12-22T22:49:09.006Z,1.23
2022-12-22T22:51:38.199Z,0.97
2022-12-22T22:54:06.160Z,1.00
2022-12-22T22:56:35.399Z,1.33
2022-12-22T22:59:03.886Z,1.13
2022-12-22T23:01:32.014Z,1.10
2022-12-22T23:04:00.038Z,1.07
2022-12-22T23:06:28.053Z,0.80
2022-12-22T23:08:57.309Z,1.20
2022-12-22T23:11:25.775Z,1.03
2022-12-22T23:13:55.598Z,1.80
2022-12-22T23:16:24.444Z,1.00
2022-12-22T23:18:53.971Z,0.73
2022-12-22T23:21:23.402Z,1.10
2022-12-22T23:23:55.422Z,1.00
2022-12-22T23:26:25.665Z,0.83
2022-12-22T23:28:59.290Z,0.97
2022-12-22T23:31:31.216Z,1.03
2022-12-22T23:33:59.585Z,1.23
2022-12-22T23:36:27.485Z,0.70
2022-12-22T23:38:55.402Z,4.43
2022-12-22T23:41:25.068Z,0.80
2022-12-22T23:43:54.198Z,0.83
2022-12-22T23:46:22.175Z,1.07
2022-12-22T23:48:52.567Z,1.20
2022-12-22T23:51:21.761Z,1.00
2022-12-22T23:53:49.668Z,0.83
2022-12-22T23:56:17.933Z,0.87
2022-12-22T23:58:52.526Z,1.30
